createdAt,value
2022-10-28T00:00:50.926Z,100.00
2022-10-28T00:03:18.914Z,100.00
2022-10-28T00:05:48.137Z,100.00
2022-10-28T00:08:15.936Z,100.00
2022-10-28T00:10:43.700Z,100.00
2022-10-28T00:13:11.486Z,100.00
2022-10-28T00:15:39.317Z,100.00
2022-10-28T00:18:07.313Z,100.00
2022-10-28T00:20:35.148Z,100.00
2022-10-28T00:23:04.356Z,100.00
2022-10-28T00:25:32.107Z,100.00
2022-10-28T00:27:59.985Z,100.00
2022-10-28T00:30:27.879Z,100.00
2022-10-28T00:32:55.921Z,100.00
2022-10-28T00:35:24.468Z,100.00
2022-10-28T00:37:54.428Z,100.00
2022-10-28T00:40:23.822Z,100.00
2022-10-28T00:42:51.771Z,100.00
2022-10-28T00:45:19.933Z,100.00
2022-10-28T00:47:55.231Z,100.00
2022-10-28T00:50:42.170Z,100.00
2022-10-28T00:53:15.304Z,100.00
2022-10-28T00:55:46.395Z,100.00
2022-10-28T00:58:15.664Z,100.00
2022-10-28T01:00:43.638Z,100.00
2022-10-28T01:03:11.882Z,100.00
2022-10-28T01:05:42.897Z,100.00
2022-10-28T01:08:12.033Z,100.00
2022-10-28T01:10:57.955Z,100.00
2022-10-28T01:13:37.168Z,100.00
2022-10-28T01:16:16.132Z,100.00
2022-10-28T01:18:55.532Z,100.00
2022-10-28T01:21:40.017Z,100.00
2022-10-28T01:24:22.761Z,100.00
2022-10-28T01:27:32.396Z,100.00
2022-10-28T01:30:12.873Z,100.00
2022-10-28T01:32:53.377Z,100.00
2022-10-28T01:35:27.080Z,100.00
2022-10-28T01:38:11.002Z,100.00
2022-10-28T01:40:48.448Z,100.00
2022-10-28T01:43:24.719Z,100.00
2022-10-28T01:45:59.196Z,100.00
2022-10-28T01:48:33.745Z,100.00
2022-10-28T01:51:08.828Z,100.00
2022-10-28T01:53:41.795Z,100.00
2022-10-28T01:56:14.937Z,100.00
2022-10-28T01:58:44.061Z,100.00
2022-10-28T02:01:13.418Z,100.00
2022-10-28T02:03:42.683Z,100.00
2022-10-28T02:06:18.304Z,100.00
2022-10-28T02:08:58.333Z,100.00
2022-10-28T02:12:09.031Z,100.00
2022-10-28T02:14:54.118Z,100.00
2022-10-28T02:17:29.978Z,100.00
2022-10-28T02:20:08.465Z,100.00
2022-10-28T02:22:46.020Z,100.00
2022-10-28T02:25:18.040Z,100.00
2022-10-28T02:27:53.183Z,100.00
2022-10-28T02:30:24.385Z,100.00
2022-10-28T02:32:57.019Z,100.00
2022-10-28T02:35:32.545Z,100.00
2022-10-28T02:38:05.333Z,100.00
2022-10-28T02:40:36.059Z,100.00
2022-10-28T02:43:07.112Z,100.00
2022-10-28T02:45:38.962Z,100.00
2022-10-28T02:48:11.008Z,100.00
2022-10-28T02:50:47.875Z,100.00
2022-10-28T02:53:20.302Z,100.00
2022-10-28T02:55:53.613Z,100.00
2022-10-28T02:58:22.115Z,100.00
2022-10-28T03:00:50.644Z,100.00
2022-10-28T03:03:18.957Z,100.00
2022-10-28T03:05:48.171Z,100.00
2022-10-28T03:08:15.993Z,100.00
2022-10-28T03:10:43.824Z,100.00
2022-10-28T03:13:11.649Z,100.00
2022-10-28T03:15:39.445Z,100.00
2022-10-28T03:18:07.275Z,100.00
2022-10-28T03:20:35.135Z,100.00
2022-10-28T03:23:04.309Z,100.00
2022-10-28T03:25:32.471Z,100.00
2022-10-28T03:28:00.226Z,100.00
2022-10-28T03:30:28.009Z,100.00
2022-10-28T03:32:56.179Z,100.00
2022-10-28T03:35:24.320Z,100.00
2022-10-28T03:37:52.273Z,100.00
2022-10-28T03:40:21.448Z,100.00
2022-10-28T03:42:49.309Z,100.00
2022-10-28T03:45:17.110Z,100.00
2022-10-28T03:47:44.894Z,100.00
2022-10-28T03:50:12.780Z,100.00
2022-10-28T03:52:40.596Z,100.00
2022-10-28T03:55:09.185Z,100.00
2022-10-28T03:57:38.366Z,100.00
2022-10-28T04:00:07.827Z,100.00
2022-10-28T04:02:41.418Z,100.00
2022-10-28T04:05:09.580Z,100.00
2022-10-28T04:07:37.450Z,100.00
2022-10-28T04:10:05.626Z,100.00
2022-10-28T04:12:33.439Z,100.00
2022-10-28T04:15:02.637Z,100.00
2022-10-28T04:17:30.881Z,100.00
2022-10-28T04:19:58.692Z,100.00
2022-10-28T04:22:26.480Z,100.00
2022-10-28T04:24:55.085Z,100.00
2022-10-28T04:27:22.960Z,100.00
2022-10-28T04:29:50.839Z,100.00
2022-10-28T04:32:19.986Z,100.00
2022-10-28T04:34:47.850Z,100.00
2022-10-28T04:37:19.640Z,100.00
2022-10-28T04:39:48.478Z,100.00
2022-10-28T04:42:16.553Z,100.00
2022-10-28T04:44:44.268Z,100.00
2022-10-28T04:47:12.180Z,100.00
2022-10-28T04:49:41.471Z,100.00
2022-10-28T04:52:12.050Z,100.00
2022-10-28T04:54:42.700Z,100.00
2022-10-28T04:57:10.550Z,100.00
2022-10-28T04:59:38.397Z,100.00
2022-10-28T05:02:06.374Z,100.00
2022-10-28T05:04:34.290Z,100.00
2022-10-28T05:07:03.470Z,100.00
2022-10-28T05:09:31.286Z,100.00
2022-10-28T05:11:59.063Z,100.00
2022-10-28T05:14:26.877Z,100.00
2022-10-28T05:16:54.676Z,100.00
2022-10-28T05:19:22.577Z,100.00
2022-10-28T05:21:50.425Z,100.00
2022-10-28T05:24:19.556Z,100.00
2022-10-28T05:26:47.677Z,100.00
2022-10-28T05:29:15.472Z,100.00
2022-10-28T05:31:43.226Z,100.00
2022-10-28T05:34:11.020Z,100.00
2022-10-28T05:36:39.348Z,100.00
2022-10-28T05:39:07.506Z,100.00
2022-10-28T05:41:38.855Z,100.00
2022-10-28T05:44:07.236Z,100.00
2022-10-28T05:46:34.981Z,100.00
2022-10-28T05:49:02.835Z,100.00
2022-10-28T05:51:30.719Z,100.00
2022-10-28T05:53:58.516Z,100.00
2022-10-28T05:56:26.352Z,100.00
2022-10-28T05:58:57.176Z,100.00
2022-10-28T06:01:25.090Z,100.00
2022-10-28T06:03:52.927Z,100.00
2022-10-28T06:06:20.811Z,100.00
2022-10-28T06:08:48.589Z,100.00
2022-10-28T06:11:14.843Z,100.00
2022-10-28T06:13:42.796Z,100.00
2022-10-28T06:16:11.986Z,100.00
2022-10-28T06:18:39.753Z,100.00
2022-10-28T06:21:07.737Z,100.00
2022-10-28T06:23:35.466Z,100.00
2022-10-28T06:26:04.421Z,100.00
2022-10-28T06:28:32.571Z,100.00
2022-10-28T06:31:04.688Z,100.00
2022-10-28T06:33:34.632Z,100.00
2022-10-28T06:36:03.378Z,100.00
2022-10-28T06:38:31.189Z,100.00
2022-10-28T06:40:59.224Z,100.00
2022-10-28T06:43:27.038Z,100.00
2022-10-28T06:45:55.753Z,100.00
2022-10-28T06:48:25.822Z,100.00
2022-10-28T06:50:57.981Z,100.00
2022-10-28T06:53:26.120Z,100.00
2022-10-28T06:55:54.339Z,100.00
2022-10-28T06:58:22.317Z,100.00
2022-10-28T07:00:50.646Z,100.00
2022-10-28T07:03:19.728Z,100.00
2022-10-28T07:05:49.189Z,100.00
2022-10-28T07:08:18.570Z,100.00
2022-10-28T07:10:53.844Z,100.00
2022-10-28T07:13:21.647Z,100.00
2022-10-28T07:15:53.491Z,100.00
2022-10-28T07:18:21.848Z,100.00
2022-10-28T07:20:49.928Z,100.00
2022-10-28T07:23:19.176Z,100.00
2022-10-28T07:28:27.682Z,100.00
2022-10-28T07:30:56.072Z,100.00
2022-10-28T07:33:23.930Z,100.00
2022-10-28T07:35:51.768Z,100.00
2022-10-28T07:38:21.198Z,100.00
2022-10-28T07:40:49.034Z,100.00
2022-10-28T07:43:17.086Z,100.00
2022-10-28T07:45:44.914Z,100.00
2022-10-28T07:48:12.799Z,100.00
2022-10-28T07:50:41.303Z,100.00
2022-10-28T07:53:09.310Z,100.00
2022-10-28T07:55:38.617Z,100.00
2022-10-28T07:58:06.426Z,100.00
2022-10-28T08:00:34.346Z,100.00
2022-10-28T08:03:03.694Z,100.00
2022-10-28T08:05:31.505Z,100.00
2022-10-28T08:07:59.358Z,100.00
2022-10-28T08:10:27.990Z,100.00
2022-10-28T08:12:58.907Z,100.00
2022-10-28T08:15:27.391Z,100.00
2022-10-28T08:17:55.860Z,100.00
2022-10-28T08:20:24.278Z,100.00
2022-10-28T08:22:52.519Z,100.00
2022-10-28T08:25:20.802Z,100.00
2022-10-28T08:27:48.623Z,100.00
2022-10-28T08:30:18.547Z,100.00
2022-10-28T08:32:46.338Z,100.00
2022-10-28T08:35:14.329Z,100.00
2022-10-28T08:37:46.117Z,100.00
2022-10-28T08:40:14.714Z,100.00
2022-10-28T08:42:48.486Z,100.00
2022-10-28T08:45:26.461Z,100.00
2022-10-28T08:48:10.689Z,99.41
2022-10-28T08:50:47.674Z,98.63
2022-10-28T08:53:20.524Z,99.39
2022-10-28T08:55:51.828Z,99.06
2022-10-28T08:58:24.869Z,96.92
2022-10-28T09:00:56.004Z,95.42
2022-10-28T09:03:26.877Z,97.52
2022-10-28T09:06:01.408Z,96.56
2022-10-28T09:08:32.915Z,93.37
2022-10-28T09:11:34.986Z,95.32
2022-10-28T09:14:15.144Z,92.99
2022-10-28T09:16:48.580Z,94.75
2022-10-28T09:19:26.812Z,94.17
2022-10-28T09:22:08.237Z,94.40
2022-10-28T09:24:45.530Z,96.04
2022-10-28T09:27:24.213Z,92.44
2022-10-28T09:30:03.711Z,93.62
2022-10-28T09:32:43.788Z,91.69
2022-10-28T09:35:15.036Z,89.99
2022-10-28T09:37:48.691Z,88.54
2022-10-28T09:40:20.793Z,90.55
2022-10-28T09:43:07.521Z,89.52
2022-10-28T09:45:38.781Z,89.26
2022-10-28T09:48:17.987Z,87.96
2022-10-28T09:50:45.920Z,88.60
2022-10-28T09:53:19.767Z,87.99
2022-10-28T09:55:47.703Z,85.98
2022-10-28T09:58:15.528Z,87.90
2022-10-28T10:00:43.420Z,88.42
2022-10-28T10:03:12.636Z,86.63
2022-10-28T10:05:44.493Z,86.81
2022-10-28T10:08:15.891Z,87.16
2022-10-28T10:10:48.931Z,87.94
2022-10-28T10:13:21.218Z,88.30
2022-10-28T10:15:53.774Z,88.96
2022-10-28T10:18:25.625Z,89.66
2022-10-28T10:20:55.886Z,91.13
2022-10-28T10:23:28.366Z,89.29
2022-10-28T10:26:04.475Z,90.01
2022-10-28T10:28:37.964Z,88.66
2022-10-28T10:31:08.702Z,88.56
2022-10-28T10:33:40.449Z,89.81
2022-10-28T10:36:17.066Z,89.08
2022-10-28T10:38:50.132Z,90.52
2022-10-28T10:41:35.660Z,88.24
2022-10-28T10:44:03.563Z,87.25
2022-10-28T10:46:31.376Z,87.56
2022-10-28T10:49:14.886Z,87.63
2022-10-28T10:51:52.478Z,86.86
2022-10-28T10:54:21.649Z,85.97
2022-10-28T10:56:49.649Z,87.75
2022-10-28T10:59:24.221Z,85.76
2022-10-28T11:01:52.697Z,85.74
2022-10-28T11:04:25.345Z,84.41
2022-10-28T11:06:55.757Z,86.40
2022-10-28T11:09:31.286Z,84.64
2022-10-28T11:11:59.198Z,84.92
2022-10-28T11:14:29.387Z,86.14
2022-10-28T11:16:57.744Z,84.02
2022-10-28T11:19:31.690Z,83.30
2022-10-28T11:22:13.669Z,83.41
2022-10-28T11:25:09.389Z,83.85
2022-10-28T11:27:55.289Z,82.43
2022-10-28T11:30:36.242Z,83.13
2022-10-28T11:33:29.429Z,83.76
2022-10-28T11:36:10.031Z,83.26
2022-10-28T11:38:56.545Z,83.79
2022-10-28T11:41:33.512Z,82.50
2022-10-28T11:44:05.339Z,81.98
2022-10-28T11:46:44.506Z,82.05
2022-10-28T11:49:42.797Z,81.56
2022-10-28T11:52:28.899Z,83.21
2022-10-28T11:55:13.584Z,82.49
2022-10-28T11:57:56.519Z,81.18
2022-10-28T12:00:44.686Z,82.17
2022-10-28T12:03:36.077Z,80.84
2022-10-28T12:06:13.530Z,81.64
2022-10-28T12:08:56.837Z,82.06
2022-10-28T12:11:34.408Z,81.18
2022-10-28T12:14:11.059Z,81.09
2022-10-28T12:16:44.307Z,82.39
2022-10-28T12:19:16.146Z,80.39
2022-10-28T12:21:48.817Z,81.65
2022-10-28T12:24:22.457Z,83.07
2022-10-28T12:26:54.502Z,82.24
2022-10-28T12:29:26.564Z,82.48
2022-10-28T12:31:59.938Z,83.16
2022-10-28T12:34:34.281Z,84.66
2022-10-28T12:37:07.104Z,85.25
2022-10-28T12:39:42.376Z,85.17
2022-10-28T12:42:15.238Z,86.37
2022-10-28T12:44:45.331Z,85.62
2022-10-28T12:47:20.265Z,85.92
2022-10-28T12:50:01.308Z,85.88
2022-10-28T12:52:37.857Z,87.78
2022-10-28T12:55:18.715Z,87.97
2022-10-28T12:57:52.932Z,86.48
2022-10-28T13:00:24.857Z,85.97
2022-10-28T13:03:00.711Z,85.69
2022-10-28T13:05:35.578Z,85.01
2022-10-28T13:08:40.001Z,85.50
2022-10-28T13:11:46.264Z,86.21
2022-10-28T13:14:32.180Z,86.57
2022-10-28T13:17:20.495Z,85.18
2022-10-28T13:20:11.131Z,86.32
2022-10-28T13:23:02.298Z,85.78
2022-10-28T13:25:55.120Z,85.75
2022-10-28T13:28:33.653Z,86.30
2022-10-28T13:31:05.656Z,85.38
2022-10-28T13:33:36.737Z,86.64
2022-10-28T13:36:19.419Z,85.32
2022-10-28T13:38:53.935Z,85.36
2022-10-28T13:41:34.543Z,85.47
2022-10-28T13:44:30.678Z,85.38
2022-10-28T13:47:26.163Z,86.42
2022-10-28T13:50:21.517Z,87.24
2022-10-28T13:53:43.170Z,85.34
2022-10-28T13:56:39.683Z,86.13
2022-10-28T13:59:20.547Z,87.44
2022-10-28T14:02:01.932Z,87.15
2022-10-28T14:04:44.923Z,85.59
2022-10-28T14:07:22.577Z,86.55
2022-10-28T14:09:53.918Z,87.35
2022-10-28T14:12:33.529Z,86.73
2022-10-28T14:15:17.020Z,85.17
2022-10-28T14:17:49.970Z,86.08
2022-10-28T14:20:28.029Z,86.81
2022-10-28T14:22:56.301Z,84.98
2022-10-28T14:26:01.819Z,84.37
2022-10-28T14:28:52.847Z,84.78
2022-10-28T14:31:33.956Z,85.47
2022-10-28T14:34:44.584Z,85.75
2022-10-28T14:37:53.518Z,85.06
2022-10-28T14:40:32.608Z,85.89
2022-10-28T14:43:17.644Z,85.23
2022-10-28T14:46:02.301Z,86.37
2022-10-28T14:48:51.598Z,86.01
2022-10-28T14:51:22.898Z,87.13
2022-10-28T14:53:56.506Z,85.63
2022-10-28T14:56:26.874Z,86.40
2022-10-28T14:58:58.583Z,86.46
2022-10-28T15:01:28.605Z,87.20
2022-10-28T15:04:00.121Z,86.76
2022-10-28T15:06:41.591Z,86.51
2022-10-28T15:09:21.832Z,87.16
2022-10-28T15:11:51.547Z,86.76
2022-10-28T15:14:29.241Z,87.96
2022-10-28T15:16:57.557Z,88.84
2022-10-28T15:19:27.283Z,89.80
2022-10-28T15:22:07.475Z,91.23
2022-10-28T15:24:36.477Z,92.98
2022-10-28T15:27:04.649Z,93.85
2022-10-28T15:29:32.695Z,95.33
2022-10-28T15:32:11.378Z,97.20
2022-10-28T15:34:39.177Z,97.67
2022-10-28T15:37:07.983Z,98.27
2022-10-28T15:39:37.538Z,98.89
2022-10-28T15:42:27.938Z,100.00
2022-10-28T15:44:57.043Z,100.00
2022-10-28T15:47:32.799Z,100.00
2022-10-28T15:50:03.704Z,100.00
2022-10-28T15:52:50.286Z,100.00
2022-10-28T15:58:34.118Z,100.00
2022-10-28T16:01:01.748Z,100.00
2022-10-28T16:03:42.887Z,100.00
2022-10-28T16:06:24.683Z,100.00
2022-10-28T16:09:05.539Z,100.00
2022-10-28T16:11:39.268Z,100.00
2022-10-28T16:14:28.850Z,100.00
2022-10-28T16:16:59.887Z,100.00
2022-10-28T16:19:30.750Z,100.00
2022-10-28T16:21:58.635Z,99.35
2022-10-28T16:24:26.457Z,99.81
2022-10-28T16:27:09.252Z,100.00
2022-10-28T16:29:37.102Z,99.38
2022-10-28T16:32:05.168Z,98.95
2022-10-28T16:34:33.136Z,99.29
2022-10-28T16:37:00.910Z,98.84
2022-10-28T16:39:28.759Z,98.52
2022-10-28T16:41:58.906Z,99.11
2022-10-28T16:44:27.193Z,97.75
2022-10-28T16:46:54.997Z,98.22
2022-10-28T16:49:22.801Z,98.76
2022-10-28T16:51:50.659Z,99.11
2022-10-28T16:54:18.423Z,100.00
2022-10-28T16:56:46.206Z,100.00
2022-10-28T16:59:15.604Z,100.00
2022-10-28T17:01:43.495Z,100.00
2022-10-28T17:04:11.597Z,100.00
2022-10-28T17:06:39.475Z,100.00
2022-10-28T17:09:07.244Z,100.00
2022-10-28T17:11:35.110Z,100.00
2022-10-28T17:14:02.962Z,100.00
2022-10-28T17:16:32.167Z,100.00
2022-10-28T17:19:00.032Z,100.00
2022-10-28T17:21:27.857Z,100.00
2022-10-28T17:23:55.750Z,100.00
2022-10-28T17:26:23.541Z,100.00
2022-10-28T17:28:54.549Z,100.00
2022-10-28T17:31:25.067Z,100.00
2022-10-28T17:33:57.795Z,100.00
2022-10-28T17:36:25.710Z,100.00
2022-10-28T17:38:53.543Z,100.00
2022-10-28T17:41:21.449Z,100.00
2022-10-28T17:43:49.313Z,100.00
2022-10-28T17:46:17.167Z,100.00
2022-10-28T17:48:44.969Z,100.00
2022-10-28T17:51:14.553Z,100.00
2022-10-28T17:53:42.403Z,100.00
2022-10-28T17:56:10.842Z,100.00
2022-10-28T17:58:38.821Z,100.00
2022-10-28T18:01:08.873Z,100.00
2022-10-28T18:03:38.947Z,100.00
2022-10-28T18:06:10.265Z,100.00
2022-10-28T18:08:41.463Z,100.00
2022-10-28T18:11:11.283Z,100.00
2022-10-28T18:13:40.737Z,100.00
2022-10-28T18:16:11.037Z,100.00
2022-10-28T18:18:42.265Z,100.00
2022-10-28T18:21:10.905Z,100.00
2022-10-28T18:23:40.950Z,100.00
2022-10-28T18:26:12.220Z,100.00
2022-10-28T18:28:41.068Z,100.00
2022-10-28T18:31:12.240Z,100.00
2022-10-28T18:33:40.837Z,100.00
2022-10-28T18:36:12.242Z,100.00
2022-10-28T18:38:41.903Z,100.00
2022-10-28T18:41:11.751Z,100.00
2022-10-28T18:43:39.769Z,100.00
2022-10-28T18:46:08.157Z,100.00
2022-10-28T18:48:36.261Z,100.00
2022-10-28T18:51:07.416Z,100.00
2022-10-28T18:53:36.784Z,100.00
2022-10-28T18:56:07.233Z,100.00
2022-10-28T18:58:35.808Z,100.00
2022-10-28T19:01:08.786Z,100.00
2022-10-28T19:03:36.933Z,100.00
2022-10-28T19:06:06.590Z,100.00
2022-10-28T19:08:34.782Z,100.00
2022-10-28T19:11:03.692Z,100.00
2022-10-28T19:13:36.494Z,100.00
2022-10-28T19:16:05.084Z,100.00
2022-10-28T19:18:35.567Z,100.00
2022-10-28T19:21:04.283Z,100.00
2022-10-28T19:23:32.621Z,100.00
2022-10-28T19:26:01.269Z,100.00
2022-10-28T19:28:29.288Z,100.00
2022-10-28T19:31:04.641Z,100.00
2022-10-28T19:33:33.008Z,100.00
2022-10-28T19:36:06.810Z,100.00
2022-10-28T19:38:36.457Z,100.00
2022-10-28T19:41:06.009Z,100.00
2022-10-28T19:43:34.298Z,100.00
2022-10-28T19:46:10.310Z,100.00
2022-10-28T19:48:38.971Z,100.00
2022-10-28T19:51:07.715Z,100.00
2022-10-28T19:53:36.294Z,100.00
2022-10-28T19:56:05.046Z,100.00
2022-10-28T19:58:33.370Z,100.00
2022-10-28T20:01:03.464Z,100.00
2022-10-28T20:03:34.640Z,100.00
2022-10-28T20:06:06.116Z,100.00
2022-10-28T20:08:38.070Z,100.00
2022-10-28T20:11:07.457Z,100.00
2022-10-28T20:13:36.126Z,100.00
2022-10-28T20:16:06.638Z,100.00
2022-10-28T20:18:36.025Z,100.00
2022-10-28T20:21:05.511Z,100.00
2022-10-28T20:23:35.588Z,100.00
2022-10-28T20:26:04.704Z,100.00
2022-10-28T20:28:32.925Z,100.00
2022-10-28T20:31:02.202Z,100.00
2022-10-28T20:33:31.221Z,100.00
2022-10-28T20:36:00.449Z,100.00
2022-10-28T20:38:28.888Z,100.00
2022-10-28T20:40:58.348Z,100.00
2022-10-28T20:43:27.551Z,100.00
2022-10-28T20:45:58.616Z,100.00
2022-10-28T20:48:27.629Z,100.00
2022-10-28T20:50:57.309Z,100.00
2022-10-28T20:53:28.512Z,100.00
2022-10-28T20:55:58.201Z,100.00
2022-10-28T20:58:29.273Z,100.00
2022-10-28T21:01:03.441Z,100.00
2022-10-28T21:03:31.308Z,100.00
2022-10-28T21:05:59.121Z,100.00
2022-10-28T21:08:28.389Z,100.00
2022-10-28T21:10:56.640Z,100.00
2022-10-28T21:13:24.678Z,100.00
2022-10-28T21:15:56.525Z,100.00
2022-10-28T21:18:25.982Z,100.00
2022-10-28T21:20:57.305Z,100.00
2022-10-28T21:23:25.961Z,100.00
2022-10-28T21:25:55.614Z,100.00
2022-10-28T21:28:24.164Z,100.00
2022-10-28T21:30:52.095Z,100.00
2022-10-28T21:33:19.938Z,100.00
2022-10-28T21:35:56.561Z,100.00
2022-10-28T21:38:24.904Z,100.00
2022-10-28T21:41:01.961Z,100.00
2022-10-28T21:43:30.716Z,100.00
2022-10-28T21:45:59.015Z,100.00
2022-10-28T21:48:27.990Z,100.00
2022-10-28T21:50:57.403Z,100.00
2022-10-28T21:53:25.901Z,100.00
2022-10-28T21:55:55.657Z,100.00
2022-10-28T21:58:24.974Z,100.00
2022-10-28T22:00:52.822Z,100.00
2022-10-28T22:03:20.740Z,100.00
2022-10-28T22:05:52.038Z,100.00
2022-10-28T22:08:19.823Z,100.00
2022-10-28T22:10:47.689Z,100.00
2022-10-28T22:13:15.601Z,100.00
2022-10-28T22:15:44.828Z,100.00
2022-10-28T22:18:12.665Z,100.00
2022-10-28T22:20:40.656Z,100.00
2022-10-28T22:23:08.654Z,100.00
2022-10-28T22:25:36.476Z,100.00
2022-10-28T22:28:04.547Z,100.00
2022-10-28T22:30:32.334Z,100.00
2022-10-28T22:33:01.676Z,100.00
2022-10-28T22:35:29.640Z,100.00
2022-10-28T22:37:57.623Z,100.00
2022-10-28T22:40:25.635Z,100.00
2022-10-28T22:42:53.453Z,100.00
2022-10-28T22:45:21.234Z,100.00
2022-10-28T22:47:50.352Z,100.00
2022-10-28T22:50:19.586Z,100.00
2022-10-28T22:52:47.458Z,100.00
2022-10-28T22:55:15.610Z,100.00
2022-10-28T22:57:43.445Z,100.00
2022-10-28T23:00:12.525Z,100.00
2022-10-28T23:02:40.551Z,100.00
2022-10-28T23:05:09.443Z,100.00
2022-10-28T23:07:38.602Z,100.00
2022-10-28T23:10:07.303Z,100.00
2022-10-28T23:12:35.093Z,100.00
2022-10-28T23:15:02.900Z,100.00
2022-10-28T23:17:30.685Z,100.00
2022-10-28T23:19:58.556Z,100.00
2022-10-28T23:22:26.334Z,100.00
2022-10-28T23:24:55.735Z,100.00
2022-10-28T23:27:23.803Z,100.00
2022-10-28T23:29:51.581Z,100.00
2022-10-28T23:32:19.352Z,100.00
2022-10-28T23:34:47.462Z,100.00
2022-10-28T23:37:15.295Z,100.00
2022-10-28T23:39:43.249Z,100.00
2022-10-28T23:42:12.380Z,100.00
2022-10-28T23:44:40.581Z,100.00
2022-10-28T23:47:08.481Z,100.00
2022-10-28T23:49:36.337Z,100.00
2022-10-28T23:52:04.462Z,100.00
2022-10-28T23:54:32.263Z,100.00
2022-10-28T23:57:00.187Z,100.00
2022-10-28T23:59:29.420Z,100.00
